createdAt,value
2019-05-07T00:00:43.566Z,99442.50
2019-05-07T00:03:12.419Z,99442.52
2019-05-07T00:05:42.944Z,99440.79
2019-05-07T00:08:12.971Z,99444.94
2019-05-07T00:10:42.948Z,99436.61
2019-05-07T00:13:13.031Z,99433.67
2019-05-07T00:15:44.067Z,99442.33
2019-05-07T00:18:14.106Z,99440.75
2019-05-07T00:20:44.161Z,99440.41
2019-05-07T00:23:14.173Z,99442.04
2019-05-07T00:25:44.152Z,99441.22
2019-05-07T00:28:14.267Z,99437.47
2019-05-07T00:30:44.322Z,99443.73
2019-05-07T00:33:14.354Z,99443.28
2019-05-07T00:36:02.669Z,99443.38
2019-05-07T00:38:44.143Z,99443.92
2019-05-07T00:41:24.986Z,99444.64
2019-05-07T00:43:56.614Z,99439.11
2019-05-07T00:46:27.764Z,99436.28
2019-05-07T00:48:57.731Z,99435.53
2019-05-07T00:51:29.429Z,99437.47
2019-05-07T00:54:02.691Z,99435.09
2019-05-07T00:56:33.246Z,99432.14
2019-05-07T00:59:03.490Z,99440.89
2019-05-07T01:01:34.146Z,99432.95
2019-05-07T01:04:04.659Z,99432.02
2019-05-07T01:06:34.636Z,99431.88
2019-05-07T01:09:06.515Z,99437.00
2019-05-07T01:11:36.475Z,99431.29
2019-05-07T01:14:06.476Z,99441.20
2019-05-07T01:16:36.647Z,99431.25
2019-05-07T01:19:06.618Z,99436.59
2019-05-07T01:21:36.736Z,99437.91
2019-05-07T01:24:06.714Z,99435.52
2019-05-07T01:26:36.711Z,99434.12
2019-05-07T01:29:06.702Z,99432.11
2019-05-07T01:31:38.383Z,99430.02
2019-05-07T01:34:19.297Z,99432.67
2019-05-07T01:36:49.331Z,99431.75
2019-05-07T01:39:19.294Z,99435.17
2019-05-07T01:41:49.278Z,99431.19
2019-05-07T01:44:19.247Z,99436.41
2019-05-07T01:46:50.206Z,99437.55
2019-05-07T01:49:20.184Z,99440.38
2019-05-07T01:51:50.224Z,99433.42
2019-05-07T01:54:23.523Z,99427.84
2019-05-07T01:56:52.249Z,99435.89
2019-05-07T01:59:23.427Z,99436.13
2019-05-07T02:01:55.173Z,99439.69
2019-05-07T02:04:35.526Z,99439.11
2019-05-07T02:07:15.862Z,99434.91
2019-05-07T02:09:53.541Z,99420.95
2019-05-07T02:12:27.959Z,99427.22
2019-05-07T02:14:58.053Z,99433.73
2019-05-07T02:17:28.107Z,99433.97
2019-05-07T02:19:58.212Z,99430.69
2019-05-07T02:22:42.789Z,99435.23
2019-05-07T02:25:22.256Z,99435.56
2019-05-07T02:27:52.938Z,99437.09
2019-05-07T02:30:24.282Z,99431.61
2019-05-07T02:32:54.463Z,99435.42
2019-05-07T02:35:24.521Z,99434.40
2019-05-07T02:37:57.011Z,99430.06
2019-05-07T02:40:28.837Z,99442.03
2019-05-07T02:42:58.828Z,99432.03
2019-05-07T02:45:39.475Z,99437.44
2019-05-07T02:48:12.779Z,99439.41
2019-05-07T02:50:45.684Z,99437.13
2019-05-07T02:53:18.195Z,99441.47
2019-05-07T02:55:52.896Z,99446.08
2019-05-07T02:58:24.003Z,99437.17
2019-05-07T03:00:54.547Z,99439.82
2019-05-07T03:03:24.989Z,99438.63
2019-05-07T03:05:55.072Z,99439.09
2019-05-07T03:08:27.559Z,99443.36
2019-05-07T03:10:57.057Z,99440.52
2019-05-07T03:13:27.040Z,99453.03
2019-05-07T03:15:57.200Z,99440.55
2019-05-07T03:18:27.458Z,99445.48
2019-05-07T03:20:59.212Z,99444.63
2019-05-07T03:23:33.743Z,99445.40
2019-05-07T03:26:09.723Z,99449.25
2019-05-07T03:28:42.740Z,99450.38
2019-05-07T03:31:16.767Z,99454.99
2019-05-07T03:33:48.043Z,99461.59
2019-05-07T03:36:19.793Z,99461.32
2019-05-07T03:38:49.768Z,99457.17
2019-05-07T03:41:22.697Z,99460.07
2019-05-07T03:43:52.895Z,99464.08
2019-05-07T03:46:23.687Z,99465.48
2019-05-07T03:48:53.743Z,99466.80
2019-05-07T03:51:23.958Z,99465.73
2019-05-07T03:53:55.193Z,99467.87
2019-05-07T03:56:25.174Z,99474.71
2019-05-07T03:58:55.203Z,99479.07
2019-05-07T04:01:25.186Z,99480.24
2019-05-07T04:03:55.202Z,99477.72
2019-05-07T04:06:25.172Z,99480.36
2019-05-07T04:08:55.204Z,99477.78
2019-05-07T04:11:25.193Z,99481.52
2019-05-07T04:13:55.193Z,99480.80
2019-05-07T04:16:25.211Z,99484.85
2019-05-07T04:18:55.175Z,99485.80
2019-05-07T04:21:25.155Z,99487.02
2019-05-07T04:23:56.787Z,99487.75
2019-05-07T04:26:33.960Z,99486.99
2019-05-07T04:29:07.270Z,99486.72
2019-05-07T04:31:38.954Z,99493.40
2019-05-07T04:34:13.172Z,99491.80
2019-05-07T04:36:44.059Z,99499.72
2019-05-07T04:39:14.122Z,99497.66
2019-05-07T04:41:44.106Z,99489.27
2019-05-07T04:44:14.498Z,99493.37
2019-05-07T04:46:47.937Z,99492.47
2019-05-07T04:49:16.301Z,99495.31
2019-05-07T04:51:53.027Z,99494.45
2019-05-07T04:54:23.828Z,99496.71
2019-05-07T04:56:53.942Z,99492.80
2019-05-07T04:59:25.075Z,99497.36
2019-05-07T05:01:56.756Z,99500.96
2019-05-07T05:04:34.026Z,99507.52
2019-05-07T05:06:58.409Z,99508.73
2019-05-07T05:09:28.376Z,99507.04
2019-05-07T05:11:58.513Z,99508.83
2019-05-07T05:14:28.477Z,99508.42
2019-05-07T05:17:01.946Z,99508.25
2019-05-07T05:19:32.295Z,99508.37
2019-05-07T05:22:04.308Z,99510.10
2019-05-07T05:24:35.938Z,99515.49
2019-05-07T05:27:05.992Z,99514.96
2019-05-07T05:29:38.386Z,99511.89
2019-05-07T05:32:08.455Z,99509.44
2019-05-07T05:34:38.426Z,99520.03
2019-05-07T05:37:08.401Z,99517.42
2019-05-07T05:39:38.444Z,99524.91
2019-05-07T05:42:13.024Z,99517.65
2019-05-07T05:44:43.016Z,99519.48
2019-05-07T05:47:13.617Z,99522.50
2019-05-07T05:49:45.250Z,99516.96
2019-05-07T05:52:22.056Z,99522.67
2019-05-07T05:54:54.380Z,99513.17
2019-05-07T05:57:32.251Z,99518.77
2019-05-07T06:00:22.027Z,99522.41
2019-05-07T06:02:53.323Z,99527.02
2019-05-07T06:05:41.533Z,99525.11
2019-05-07T06:08:18.888Z,99523.39
2019-05-07T06:10:56.000Z,99525.02
2019-05-07T06:13:27.647Z,99534.73
2019-05-07T06:16:14.365Z,99527.55
2019-05-07T06:18:46.033Z,99536.44
2019-05-07T06:21:26.548Z,99532.14
2019-05-07T06:24:02.265Z,99542.84
2019-05-07T06:26:32.320Z,99544.13
2019-05-07T06:29:02.523Z,99545.02
2019-05-07T06:31:32.812Z,99545.91
2019-05-07T06:34:02.860Z,99551.00
2019-05-07T06:36:34.557Z,99545.48
2019-05-07T06:39:12.568Z,99549.78
2019-05-07T06:42:02.059Z,99547.64
2019-05-07T06:44:33.522Z,99550.16
2019-05-07T06:47:03.547Z,99549.13
2019-05-07T06:49:33.569Z,99557.84
2019-05-07T06:52:03.550Z,99558.58
2019-05-07T06:54:33.533Z,99552.25
2019-05-07T06:57:03.704Z,99562.62
2019-05-07T06:59:35.397Z,99567.37
2019-05-07T07:02:22.649Z,99565.63
2019-05-07T07:05:02.825Z,99570.44
2019-05-07T07:07:37.313Z,99568.37
2019-05-07T07:10:12.060Z,99566.00
2019-05-07T07:12:42.615Z,99566.91
2019-05-07T07:15:13.722Z,99573.81
2019-05-07T07:17:43.843Z,99581.26
2019-05-07T07:20:14.267Z,99577.81
2019-05-07T07:22:44.304Z,99580.42
2019-05-07T07:25:14.285Z,99583.88
2019-05-07T07:27:44.337Z,99583.28
2019-05-07T07:30:28.170Z,99579.52
2019-05-07T07:32:59.853Z,99585.40
2019-05-07T07:35:32.034Z,99582.09
2019-05-07T07:38:03.330Z,99585.67
2019-05-07T07:40:42.237Z,99581.52
2019-05-07T07:43:12.893Z,99577.38
2019-05-07T07:45:43.050Z,99572.77
2019-05-07T07:48:13.318Z,99576.31
2019-05-07T07:50:43.535Z,99579.52
2019-05-07T07:53:13.519Z,99576.53
2019-05-07T07:55:45.199Z,99574.98
2019-05-07T07:58:23.000Z,99583.88
2019-05-07T08:00:54.740Z,99586.93
2019-05-07T08:03:24.777Z,99588.20
2019-05-07T08:05:55.852Z,99590.23
2019-05-07T08:08:26.038Z,99584.27
2019-05-07T08:10:56.025Z,99583.22
2019-05-07T08:13:27.412Z,99587.77
2019-05-07T08:15:57.594Z,99590.91
2019-05-07T08:18:27.668Z,99582.30
2019-05-07T08:20:57.675Z,99587.61
2019-05-07T08:23:27.727Z,99577.69
2019-05-07T08:25:57.773Z,99584.59
2019-05-07T08:28:27.901Z,99589.16
2019-05-07T08:31:02.990Z,99593.34
2019-05-07T08:33:35.914Z,99601.36
2019-05-07T08:36:16.644Z,99598.06
2019-05-07T08:38:53.542Z,99597.49
2019-05-07T08:41:25.511Z,99600.27
2019-05-07T08:44:11.575Z,99598.59
2019-05-07T08:46:42.080Z,99601.00
2019-05-07T08:49:13.519Z,99591.58
2019-05-07T08:54:40.075Z,99605.77
2019-05-07T08:57:11.740Z,99613.28
2019-05-07T08:59:46.776Z,99607.07
2019-05-07T09:02:13.638Z,99610.61
2019-05-07T09:04:43.606Z,99616.53
2019-05-07T09:07:13.616Z,99617.88
2019-05-07T09:09:43.932Z,99610.26
2019-05-07T09:12:13.975Z,99612.70
2019-05-07T09:14:43.935Z,99614.14
2019-05-07T09:17:13.993Z,99615.19
2019-05-07T09:19:50.755Z,99619.34
2019-05-07T09:22:15.685Z,99613.04
2019-05-07T09:24:45.677Z,99618.38
2019-05-07T09:27:17.519Z,99620.52
2019-05-07T09:29:49.206Z,99620.18
2019-05-07T09:32:24.045Z,99616.60
2019-05-07T09:34:58.831Z,99615.87
2019-05-07T09:37:32.431Z,99624.00
2019-05-07T09:40:02.796Z,99622.33
2019-05-07T09:42:33.511Z,99613.70
2019-05-07T09:45:07.207Z,99624.73
2019-05-07T09:47:37.168Z,99624.01
2019-05-07T09:50:08.823Z,99604.34
2019-05-07T09:52:38.991Z,99620.91
2019-05-07T09:55:16.375Z,99618.63
2019-05-07T09:57:42.412Z,99623.19
2019-05-07T10:00:14.297Z,99631.97
2019-05-07T10:02:44.431Z,99625.42
2019-05-07T10:05:14.760Z,99629.64
2019-05-07T10:07:44.837Z,99633.55
2019-05-07T10:10:15.316Z,99633.73
2019-05-07T10:12:47.170Z,99632.34
2019-05-07T10:15:17.285Z,99630.75
2019-05-07T10:17:54.486Z,99631.69
2019-05-07T10:20:25.306Z,99637.00
2019-05-07T10:22:55.614Z,99634.13
2019-05-07T10:25:27.266Z,99630.52
2019-05-07T10:27:57.612Z,99628.66
2019-05-07T10:30:27.586Z,99631.20
2019-05-07T10:32:57.645Z,99628.41
2019-05-07T10:35:30.794Z,99631.58
2019-05-07T10:38:02.004Z,99633.27
2019-05-07T10:40:32.702Z,99624.44
2019-05-07T10:43:03.045Z,99631.84
2019-05-07T10:45:43.808Z,99629.66
2019-05-07T10:48:15.560Z,99613.09
2019-05-07T10:50:51.705Z,99622.89
2019-05-07T10:53:22.981Z,99607.74
2019-05-07T10:55:54.165Z,99606.80
2019-05-07T10:58:24.221Z,99617.03
2019-05-07T11:00:55.441Z,99610.92
2019-05-07T11:03:25.576Z,99611.83
2019-05-07T11:05:55.645Z,99617.56
2019-05-07T11:08:26.004Z,99623.70
2019-05-07T11:10:56.117Z,99606.53
2019-05-07T11:13:26.092Z,99602.86
2019-05-07T11:15:57.866Z,99604.60
2019-05-07T11:18:29.572Z,99606.55
2019-05-07T11:21:02.682Z,99604.37
2019-05-07T11:23:35.081Z,99598.11
2019-05-07T11:26:05.322Z,99606.15
2019-05-07T11:28:35.414Z,99605.26
2019-05-07T11:31:05.515Z,99593.04
2019-05-07T11:33:35.598Z,99598.69
2019-05-07T11:36:05.924Z,99607.28
2019-05-07T11:38:35.901Z,99606.48
2019-05-07T11:41:05.897Z,99616.02
2019-05-07T11:43:55.636Z,99607.27
2019-05-07T11:46:30.138Z,99599.88
2019-05-07T11:49:04.427Z,99601.23
2019-05-07T11:51:36.128Z,99595.24
2019-05-07T11:54:12.322Z,99591.08
2019-05-07T11:56:42.484Z,99594.95
2019-05-07T11:59:13.521Z,99596.45
2019-05-07T12:01:47.973Z,99586.09
2019-05-07T12:04:18.142Z,99580.56
2019-05-07T12:06:52.068Z,99595.72
2019-05-07T12:09:22.228Z,99594.98
2019-05-07T12:11:52.205Z,99594.03
2019-05-07T12:14:30.948Z,99600.47
2019-05-07T12:16:53.904Z,99591.36
2019-05-07T12:19:25.102Z,99593.11
2019-05-07T12:21:55.088Z,99588.70
2019-05-07T12:24:25.099Z,99586.77
2019-05-07T12:26:55.254Z,99591.92
2019-05-07T12:29:25.255Z,99581.19
2019-05-07T12:31:56.926Z,99576.38
2019-05-07T12:34:28.630Z,99587.65
2019-05-07T12:36:58.738Z,99594.84
2019-05-07T12:39:28.736Z,99594.59
2019-05-07T12:41:58.784Z,99589.92
2019-05-07T12:44:28.836Z,99589.17
2019-05-07T12:46:58.956Z,99596.92
2019-05-07T12:49:28.989Z,99592.20
2019-05-07T12:52:03.368Z,99592.30
2019-05-07T12:54:47.029Z,99590.70
2019-05-07T12:57:17.083Z,99591.68
2019-05-07T12:59:49.533Z,99580.53
2019-05-07T13:02:37.174Z,99589.87
2019-05-07T13:04:57.885Z,99590.44
2019-05-07T13:07:28.205Z,99585.48
2019-05-07T13:09:58.191Z,99597.81
2019-05-07T13:12:28.224Z,99594.71
2019-05-07T13:14:58.198Z,99596.80
2019-05-07T13:17:28.214Z,99589.52
2019-05-07T13:19:58.199Z,99598.44
2019-05-07T13:22:28.263Z,99600.84
2019-05-07T13:24:58.242Z,99602.27
2019-05-07T13:27:28.296Z,99600.84
2019-05-07T13:30:02.386Z,99602.22
2019-05-07T13:32:33.063Z,99607.27
2019-05-07T13:35:03.187Z,99600.52
2019-05-07T13:37:41.818Z,99596.63
2019-05-07T13:40:25.932Z,99601.97
2019-05-07T13:43:02.774Z,99606.66
2019-05-07T13:45:34.244Z,99602.90
2019-05-07T13:48:08.787Z,99613.53
2019-05-07T13:51:01.672Z,99608.77
2019-05-07T13:53:32.239Z,99606.58
2019-05-07T13:56:02.555Z,99612.41
2019-05-07T13:58:33.049Z,99617.14
2019-05-07T14:01:05.018Z,99613.80
2019-05-07T14:03:35.050Z,99605.80
2019-05-07T14:06:05.170Z,99605.97
2019-05-07T14:08:37.057Z,99619.51
2019-05-07T14:11:07.184Z,99613.97
2019-05-07T14:13:38.158Z,99613.20
2019-05-07T14:16:09.241Z,99612.98
2019-05-07T14:18:39.833Z,99620.47
2019-05-07T14:21:10.016Z,99616.03
2019-05-07T14:23:40.009Z,99618.53
2019-05-07T14:26:10.112Z,99620.50
2019-05-07T14:28:42.161Z,99625.86
2019-05-07T14:31:12.276Z,99623.17
2019-05-07T14:33:44.159Z,99624.23
2019-05-07T14:36:22.389Z,99627.83
2019-05-07T14:38:53.564Z,99628.27
2019-05-07T14:41:25.707Z,99633.63
2019-05-07T14:44:02.953Z,99628.92
2019-05-07T14:46:44.561Z,99635.30
2019-05-07T14:49:05.166Z,99635.97
2019-05-07T15:51:38.159Z,99636.97
2019-05-07T15:54:08.146Z,99640.25
2019-05-07T15:56:38.133Z,99631.86
2019-05-07T15:59:09.757Z,99633.55
2019-05-07T16:01:41.808Z,99629.61
2019-05-07T16:04:21.748Z,99625.73
2019-05-07T16:06:43.186Z,99627.48
2019-05-07T16:09:13.245Z,99618.61
2019-05-07T16:11:43.349Z,99625.41
2019-05-07T16:14:17.994Z,99623.03
2019-05-07T16:16:48.256Z,99628.08
2019-05-07T16:19:19.876Z,99627.94
2019-05-07T16:21:49.930Z,99625.31
2019-05-07T16:24:22.430Z,99626.34
2019-05-07T16:26:52.307Z,99631.38
2019-05-07T16:29:22.649Z,99631.62
2019-05-07T16:31:52.653Z,99631.08
2019-05-07T16:34:24.687Z,99637.64
2019-05-07T16:36:54.409Z,99639.53
2019-05-07T16:39:24.391Z,99637.44
2019-05-07T16:41:54.399Z,99643.21
2019-05-07T16:44:24.384Z,99650.73
2019-05-07T16:46:54.381Z,99656.78
2019-05-07T16:49:24.523Z,99675.29
2019-05-07T16:51:54.561Z,99687.58
2019-05-07T16:54:24.557Z,99679.80
2019-05-07T16:57:03.110Z,99672.14
2019-05-07T16:59:34.317Z,99663.80
2019-05-07T17:02:06.026Z,99664.04
2019-05-07T17:04:36.025Z,99651.09
2019-05-07T17:07:07.728Z,99636.80
2019-05-07T17:09:37.852Z,99643.21
2019-05-07T17:12:09.517Z,99638.91
2019-05-07T17:14:39.481Z,99644.59
2019-05-07T17:17:11.965Z,99644.31
2019-05-07T17:19:42.544Z,99647.89
2019-05-07T17:22:12.614Z,99645.67
2019-05-07T17:24:42.630Z,99648.42
2019-05-07T17:27:12.616Z,99648.19
2019-05-07T17:29:43.006Z,99643.23
2019-05-07T17:32:13.392Z,99648.96
2019-05-07T17:34:43.370Z,99649.30
2019-05-07T17:37:13.493Z,99646.84
2019-05-07T17:39:43.478Z,99646.95
2019-05-07T17:42:13.450Z,99650.30
2019-05-07T17:44:43.456Z,99650.33
2019-05-07T17:47:13.439Z,99649.66
2019-05-07T17:49:43.478Z,99657.80
2019-05-07T17:52:13.451Z,99652.31
2019-05-07T17:54:43.436Z,99654.70
2019-05-07T17:57:15.890Z,99649.77
2019-05-07T17:59:45.342Z,99649.20
2019-05-07T18:02:33.285Z,99654.61
2019-05-07T18:05:03.772Z,99651.92
2019-05-07T18:07:36.837Z,99652.63
2019-05-07T18:10:07.257Z,99650.78
2019-05-07T18:12:37.625Z,99652.50
2019-05-07T18:15:07.941Z,99649.73
2019-05-07T18:17:45.587Z,99651.59
2019-05-07T18:20:15.807Z,99654.51
2019-05-07T18:22:45.813Z,99657.33
2019-05-07T18:25:15.793Z,99653.69
2019-05-07T18:27:45.949Z,99661.91
2019-05-07T18:30:16.349Z,99660.71
2019-05-07T18:32:48.012Z,99660.97
2019-05-07T18:35:18.000Z,99657.87
2019-05-07T18:37:52.512Z,99656.47
2019-05-07T18:40:23.210Z,99656.00
2019-05-07T18:42:53.318Z,99657.44
2019-05-07T18:45:23.323Z,99652.17
2019-05-07T18:47:53.306Z,99650.17
2019-05-07T18:50:23.323Z,99652.48
2019-05-07T18:52:53.570Z,99652.55
2019-05-07T18:55:23.586Z,99649.06
2019-05-07T18:57:53.558Z,99657.76
2019-05-07T19:00:31.758Z,99650.31
2019-05-07T19:03:03.396Z,99656.35
2019-05-07T19:05:33.760Z,99656.45
2019-05-07T19:08:08.020Z,99655.77
2019-05-07T19:10:35.844Z,99655.16
2019-05-07T19:13:06.064Z,99658.89
2019-05-07T19:15:36.099Z,99658.25
2019-05-07T19:18:06.126Z,99664.44
2019-05-07T19:20:36.115Z,99658.73
2019-05-07T19:23:06.204Z,99657.58
2019-05-07T19:25:36.188Z,99660.41
2019-05-07T19:28:06.545Z,99663.78
2019-05-07T19:30:36.521Z,99656.04
2019-05-07T19:33:06.577Z,99656.78
2019-05-07T19:35:36.619Z,99651.36
2019-05-07T19:38:06.592Z,99659.59
2019-05-07T19:40:36.607Z,99657.89
2019-05-07T19:43:06.838Z,99655.22
2019-05-07T19:45:36.989Z,99651.56
2019-05-07T19:48:07.124Z,99655.07
2019-05-07T19:50:37.253Z,99656.46
2019-05-07T19:53:07.340Z,99661.55
2019-05-07T19:55:55.223Z,99657.41
2019-05-07T19:58:25.209Z,99656.94
2019-05-07T20:00:57.321Z,99660.07
2019-05-07T20:03:27.012Z,99657.47
2019-05-07T20:05:57.128Z,99651.77
2019-05-07T20:08:27.176Z,99657.92
2019-05-07T20:11:04.540Z,99660.33
2019-05-07T20:13:34.610Z,99661.41
2019-05-07T20:16:20.371Z,99666.73
2019-05-07T20:18:52.397Z,99663.84
2019-05-07T20:21:22.948Z,99666.27
2019-05-07T20:23:53.203Z,99665.56
2019-05-07T20:26:23.375Z,99672.67
2019-05-07T20:28:53.473Z,99672.89
2019-05-07T20:31:23.449Z,99676.38
2019-05-07T20:33:53.655Z,99671.25
2019-05-07T20:36:23.633Z,99668.73
2019-05-07T20:38:53.619Z,99672.48
2019-05-07T20:41:23.636Z,99672.98
2019-05-07T20:43:54.482Z,99676.59
2019-05-07T20:46:24.489Z,99669.70
2019-05-07T20:48:54.460Z,99669.75
2019-05-07T20:51:24.481Z,99671.59
2019-05-07T20:53:58.870Z,99678.36
2019-05-07T20:56:48.629Z,99671.61
2019-05-07T20:59:18.688Z,99673.34
2019-05-07T21:01:48.691Z,99674.58
2019-05-07T21:04:18.675Z,99680.82
2019-05-07T21:06:48.727Z,99669.44
2019-05-07T21:09:18.846Z,99676.05
2019-05-07T21:11:48.920Z,99679.07
2019-05-07T21:14:18.942Z,99678.05
2019-05-07T21:16:49.055Z,99672.97
2019-05-07T21:19:19.038Z,99671.94
2019-05-07T21:30:52.219Z,99672.58
2019-05-07T21:33:26.286Z,99666.69
2019-05-07T21:35:56.316Z,99664.44
2019-05-07T21:38:27.288Z,99660.38
2019-05-07T21:40:57.266Z,99670.34
2019-05-07T21:43:27.291Z,99673.30
2019-05-07T21:45:57.293Z,99675.04
2019-05-07T21:48:28.340Z,99675.09
2019-05-07T21:50:58.379Z,99670.66
2019-05-07T21:53:35.476Z,99673.19
2019-05-07T21:56:12.210Z,99668.27
2019-05-07T21:58:42.983Z,99669.55
2019-05-07T22:01:23.911Z,99674.59
2019-05-07T22:03:55.205Z,99674.17
2019-05-07T22:06:25.270Z,99676.08
2019-05-07T22:08:55.338Z,99670.42
2019-05-07T22:11:26.435Z,99665.09
2019-05-07T22:17:30.467Z,99673.48
2019-05-07T22:20:02.997Z,99666.16
2019-05-07T22:22:32.903Z,99674.97
2019-05-07T22:25:05.320Z,99675.48
2019-05-07T22:27:36.515Z,99679.25
2019-05-07T22:30:12.528Z,99672.75
2019-05-07T22:32:47.424Z,99674.75
2019-05-07T22:35:22.644Z,99678.74
2019-05-07T22:37:59.837Z,99670.61
2019-05-07T22:40:32.109Z,99672.32
2019-05-07T22:43:04.022Z,99669.20
2019-05-07T22:45:34.131Z,99669.75
2019-05-07T22:48:04.194Z,99671.98
2019-05-07T22:50:34.220Z,99668.80
2019-05-07T22:53:04.278Z,99675.45
2019-05-07T22:55:34.319Z,99679.23
2019-05-07T22:58:08.651Z,99676.11
2019-05-07T23:00:42.546Z,99672.55
2019-05-07T23:03:12.770Z,99667.39
2019-05-07T23:05:44.958Z,99671.16
2019-05-07T23:08:14.530Z,99672.96
2019-05-07T23:10:44.745Z,99676.09
2019-05-07T23:13:14.697Z,99670.67
2019-05-07T23:15:45.879Z,99672.58
2019-05-07T23:18:15.872Z,99671.06
2019-05-07T23:20:45.934Z,99674.41
2019-05-07T23:23:15.918Z,99665.70
2019-05-07T23:25:45.984Z,99670.52
2019-05-07T23:28:15.948Z,99669.38
2019-05-07T23:30:46.108Z,99668.34
2019-05-07T23:33:16.233Z,99665.80
2019-05-07T23:35:46.207Z,99672.23
2019-05-07T23:38:16.214Z,99672.39
2019-05-07T23:40:47.900Z,99670.56
2019-05-07T23:43:19.516Z,99669.77
2019-05-07T23:45:49.525Z,99664.13
2019-05-07T23:48:19.518Z,99670.66
2019-05-07T23:50:49.552Z,99675.09
2019-05-07T23:53:19.551Z,99666.97
2019-05-07T23:55:51.867Z,99664.83
2019-05-07T23:58:22.999Z,99669.59
